createdAt,value
2022-11-05T00:00:02.429Z,99659.60
2022-11-05T00:05:44.264Z,99670.48
2022-11-05T00:10:47.345Z,99666.69
2022-11-05T00:16:08.824Z,99660.39
2022-11-05T00:21:29.958Z,99661.39
2022-11-05T00:26:32.631Z,99648.05
2022-11-05T00:31:35.541Z,99638.45
2022-11-05T00:36:38.240Z,99623.67
2022-11-05T00:41:41.041Z,99624.71
2022-11-05T00:46:43.715Z,99625.44
2022-11-05T00:51:46.439Z,99624.67
2022-11-05T00:56:49.240Z,99619.89
2022-11-05T01:01:52.005Z,99618.72
2022-11-05T01:06:55.545Z,99612.00
2022-11-05T01:11:58.212Z,99607.02
2022-11-05T01:17:00.944Z,99604.70
2022-11-05T01:22:03.662Z,99598.84
2022-11-05T01:27:06.547Z,99595.99
2022-11-05T01:32:09.362Z,99594.35
2022-11-05T01:37:12.061Z,99588.52
2022-11-05T01:42:20.383Z,99581.92
2022-11-05T01:47:28.199Z,99578.52
2022-11-05T01:52:35.526Z,99579.39
2022-11-05T01:57:38.267Z,99574.23
2022-11-05T02:02:41.063Z,99563.50
2022-11-05T02:07:47.189Z,99562.57
2022-11-05T02:12:49.893Z,99570.86
2022-11-05T02:18:20.947Z,99582.90
2022-11-05T02:23:26.405Z,99579.30
2022-11-05T02:28:47.282Z,99576.08
2022-11-05T02:33:59.064Z,99575.48
2022-11-05T02:39:48.141Z,99578.36
2022-11-05T02:45:10.556Z,99576.93
2022-11-05T02:51:00.337Z,99577.58
2022-11-05T02:56:09.669Z,99576.71
2022-11-05T03:01:13.072Z,99575.89
2022-11-05T03:06:23.380Z,99583.11
2022-11-05T03:11:33.226Z,99593.86
2022-11-05T03:16:42.265Z,99595.52
2022-11-05T03:21:50.798Z,99602.88
2022-11-05T03:27:02.508Z,99597.52
2022-11-05T03:32:08.126Z,99589.80
2022-11-05T03:37:11.690Z,99593.02
2022-11-05T03:42:18.525Z,99588.17
2022-11-05T03:47:30.009Z,99576.69
2022-11-05T03:52:40.559Z,99573.73
2022-11-05T03:57:49.743Z,99573.90
2022-11-05T04:02:52.736Z,99585.77
2022-11-05T04:08:14.683Z,99579.97
2022-11-05T04:13:26.926Z,99589.14
2022-11-05T04:18:29.636Z,99586.09
2022-11-05T04:23:51.160Z,99579.21
2022-11-05T04:29:12.834Z,99568.45
2022-11-05T04:34:16.629Z,99576.11
2022-11-05T04:39:20.868Z,99580.24
2022-11-05T04:44:23.667Z,99581.02
2022-11-05T04:49:26.340Z,99575.42
2022-11-05T04:54:29.055Z,99590.44
2022-11-05T04:59:31.762Z,99599.20
2022-11-05T05:04:34.445Z,99605.94
2022-11-05T05:09:37.160Z,99607.41
2022-11-05T05:14:39.903Z,99609.36
2022-11-05T05:20:01.453Z,99619.42
2022-11-05T05:25:04.804Z,99635.84
2022-11-05T05:30:08.730Z,99648.26
2022-11-05T05:35:12.168Z,99657.35
2022-11-05T05:40:14.953Z,99658.85
2022-11-05T05:45:17.650Z,99645.52
2022-11-05T05:50:20.350Z,99651.77
2022-11-05T05:55:23.129Z,99649.59
2022-11-05T06:00:25.877Z,99661.19
2022-11-05T06:05:28.660Z,99669.63
2022-11-05T06:10:31.590Z,99678.45
2022-11-05T06:15:36.038Z,99689.40
2022-11-05T06:20:39.066Z,99689.82
2022-11-05T06:25:41.755Z,99691.94
2022-11-05T06:30:50.760Z,99685.09
2022-11-05T06:35:54.375Z,99686.21
2022-11-05T06:41:04.570Z,99688.11
2022-11-05T06:46:12.315Z,99706.77
2022-11-05T06:51:15.597Z,99713.31
2022-11-05T06:56:18.375Z,99718.99
2022-11-05T07:01:21.484Z,99722.30
2022-11-05T07:06:24.323Z,99726.94
2022-11-05T07:11:26.971Z,99725.13
2022-11-05T07:16:29.881Z,99733.65
2022-11-05T07:21:32.549Z,99741.58
2022-11-05T07:26:35.396Z,99751.11
2022-11-05T07:31:38.093Z,99759.71
2022-11-05T07:36:40.898Z,99755.27
2022-11-05T07:41:43.594Z,99761.40
2022-11-05T07:46:46.388Z,99768.42
2022-11-05T07:51:49.095Z,99771.92
2022-11-05T07:56:51.835Z,99775.67
2022-11-05T08:01:54.704Z,99792.27
2022-11-05T08:06:57.702Z,99791.66
2022-11-05T08:12:03.070Z,99801.58
2022-11-05T08:17:06.173Z,99809.48
2022-11-05T08:22:08.976Z,99806.41
2022-11-05T08:27:11.688Z,99814.30
2022-11-05T08:32:15.092Z,99819.73
2022-11-05T08:37:17.988Z,99826.52
2022-11-05T08:42:20.799Z,99834.34
2022-11-05T08:47:23.802Z,99836.71
2022-11-05T08:52:26.481Z,99842.14
2022-11-05T08:57:29.188Z,99850.70
2022-11-05T09:02:31.937Z,99850.14
2022-11-05T09:07:34.703Z,99859.59
2022-11-05T09:12:37.604Z,99857.66
2022-11-05T09:17:41.033Z,99866.23
2022-11-05T09:22:43.819Z,99866.62
2022-11-05T09:27:46.504Z,99868.71
2022-11-05T09:32:49.321Z,99873.20
2022-11-05T09:37:55.546Z,99883.64
2022-11-05T09:43:02.138Z,99890.15
2022-11-05T09:48:15.863Z,99891.32
2022-11-05T09:53:20.331Z,99895.86
2022-11-05T09:58:35.383Z,99901.82
2022-11-05T10:03:44.806Z,99910.54
2022-11-05T10:08:52.806Z,99906.61
2022-11-05T10:14:12.663Z,99920.90
2022-11-05T10:19:25.625Z,99925.39
2022-11-05T10:24:28.536Z,99924.16
2022-11-05T10:29:34.546Z,99930.77
2022-11-05T10:34:39.636Z,99941.20
2022-11-05T10:39:42.438Z,99952.95
2022-11-05T10:44:55.125Z,99958.48
2022-11-05T10:50:01.970Z,99961.75
2022-11-05T10:55:16.751Z,99966.90
2022-11-05T11:00:21.864Z,99986.59
2022-11-05T11:05:33.662Z,99983.67
2022-11-05T11:10:43.058Z,99996.38
2022-11-05T11:15:45.769Z,99995.55
2022-11-05T11:20:48.470Z,100004.29
2022-11-05T11:26:00.929Z,100001.02
2022-11-05T11:31:14.238Z,100009.29
2022-11-05T11:36:19.700Z,100020.14
2022-11-05T11:41:30.165Z,100027.32
2022-11-05T11:46:35.384Z,100026.45
2022-11-05T11:51:49.449Z,100024.75
2022-11-05T11:56:52.773Z,100019.35
2022-11-05T12:02:17.935Z,100020.73
2022-11-05T12:08:13.390Z,100038.17
2022-11-05T12:13:18.940Z,100036.64
2022-11-05T12:18:59.151Z,100031.48
2022-11-05T12:24:34.376Z,100029.30
2022-11-05T12:30:11.910Z,100030.10
2022-11-05T12:35:32.865Z,100033.86
2022-11-05T12:40:38.404Z,100041.48
2022-11-05T12:45:51.756Z,100049.03
2022-11-05T12:51:36.139Z,100056.55
2022-11-05T12:56:50.019Z,100061.02
2022-11-05T13:02:06.273Z,100073.17
2022-11-05T13:07:13.765Z,100079.64
2022-11-05T13:12:20.825Z,100084.30
2022-11-05T13:17:54.052Z,100088.55
2022-11-05T13:23:40.039Z,100090.79
2022-11-05T13:28:54.116Z,100099.99
2022-11-05T13:33:57.754Z,100107.95
2022-11-05T13:39:13.372Z,100116.34
2022-11-05T13:44:44.133Z,100130.60
2022-11-05T13:50:22.211Z,100139.33
2022-11-05T13:55:33.984Z,100149.27
2022-11-05T14:00:48.921Z,100158.61
2022-11-05T14:06:04.116Z,100158.55
2022-11-05T14:11:21.349Z,100161.85
2022-11-05T14:16:29.581Z,100176.04
2022-11-05T14:21:47.433Z,100188.58
2022-11-05T14:27:02.426Z,100194.31
2022-11-05T14:32:26.218Z,100199.77
2022-11-05T14:37:50.625Z,100208.88
2022-11-05T14:43:03.008Z,100214.98
2022-11-05T14:48:23.550Z,100212.67
2022-11-05T14:53:39.339Z,100218.27
2022-11-05T14:58:43.945Z,100221.48
2022-11-05T15:04:16.481Z,100218.79
2022-11-05T15:09:29.229Z,100219.85
2022-11-05T15:14:36.829Z,100220.27
2022-11-05T15:19:41.437Z,100224.35
2022-11-05T15:24:44.158Z,100227.20
2022-11-05T15:29:46.996Z,100230.17
2022-11-05T15:34:54.753Z,100235.27
2022-11-05T15:39:57.612Z,100240.91
2022-11-05T15:45:00.435Z,100235.69
2022-11-05T15:50:14.644Z,100236.06
2022-11-05T15:55:22.736Z,100246.05
2022-11-05T16:00:28.282Z,100247.59
2022-11-05T16:05:34.369Z,100256.05
2022-11-05T16:10:38.806Z,100261.98
2022-11-05T16:15:53.893Z,100270.95
2022-11-05T16:21:08.175Z,100280.13
2022-11-05T16:32:05.696Z,100321.81
2022-11-05T16:37:13.506Z,100326.82
2022-11-05T16:42:22.383Z,100333.08
2022-11-05T16:47:26.592Z,100328.51
2022-11-05T16:52:29.580Z,100331.93
2022-11-05T16:57:33.014Z,100335.60
2022-11-05T17:02:35.796Z,100346.25
2022-11-05T17:07:41.394Z,100356.02
2022-11-05T17:12:45.350Z,100365.66
2022-11-05T17:17:48.707Z,100364.74
2022-11-05T17:22:51.386Z,100367.36
2022-11-05T17:27:55.865Z,100371.94
2022-11-05T17:32:59.215Z,100378.17
2022-11-05T17:38:02.068Z,100385.11
2022-11-05T17:43:05.728Z,100389.88
2022-11-05T17:48:10.138Z,100398.98
2022-11-05T17:53:14.041Z,100406.39
2022-11-05T17:58:17.468Z,100414.47
2022-11-05T18:03:20.146Z,100424.85
2022-11-05T18:08:23.088Z,100430.52
2022-11-05T18:13:25.810Z,100436.49
2022-11-05T18:18:28.536Z,100433.30
2022-11-05T18:23:31.288Z,100432.05
2022-11-05T18:28:34.088Z,100437.11
2022-11-05T18:33:36.889Z,100449.73
2022-11-05T18:38:39.691Z,100457.13
2022-11-05T18:43:42.763Z,100454.77
2022-11-05T18:48:45.500Z,100457.55
2022-11-05T18:53:48.203Z,100465.64
2022-11-05T18:59:14.781Z,100462.93
2022-11-05T19:04:16.414Z,100464.23
2022-11-05T19:09:19.130Z,100474.92
2022-11-05T19:14:21.794Z,100475.98
2022-11-05T19:19:24.916Z,100472.95
2022-11-05T19:24:28.081Z,100476.77
2022-11-05T19:29:30.848Z,100479.40
2022-11-05T19:34:33.545Z,100480.30
2022-11-05T19:39:36.347Z,100483.23
2022-11-05T19:44:39.045Z,100489.52
2022-11-05T19:49:41.742Z,100491.55
2022-11-05T19:54:46.081Z,100493.55
2022-11-05T19:59:50.517Z,100497.81
2022-11-05T20:04:53.325Z,100497.50
2022-11-05T20:09:56.093Z,100507.33
2022-11-05T20:14:58.777Z,100506.70
2022-11-05T20:20:01.613Z,100512.14
2022-11-05T20:25:04.915Z,100512.61
2022-11-05T20:30:08.501Z,100513.55
2022-11-05T20:35:11.334Z,100513.39
2022-11-05T20:40:14.288Z,100521.15
2022-11-05T20:45:17.044Z,100518.91
2022-11-05T20:50:19.721Z,100519.52
2022-11-05T20:55:22.465Z,100517.05
2022-11-05T21:00:25.147Z,100524.31
2022-11-05T21:05:32.722Z,100526.42
2022-11-05T21:10:38.088Z,100530.63
2022-11-05T21:15:49.240Z,100533.83
2022-11-05T21:20:52.430Z,100539.97
2022-11-05T21:25:55.794Z,100546.32
2022-11-05T21:31:03.354Z,100544.03
2022-11-05T21:36:09.316Z,100547.08
2022-11-05T21:41:12.766Z,100546.81
2022-11-05T21:46:15.464Z,100546.92
2022-11-05T21:51:37.087Z,100555.05
2022-11-05T21:56:58.580Z,100555.20
2022-11-05T22:02:01.921Z,100558.10
2022-11-05T22:07:06.298Z,100557.55
2022-11-05T22:12:09.737Z,100560.40
2022-11-05T22:17:13.750Z,100559.94
2022-11-05T22:22:16.766Z,100565.31
2022-11-05T22:27:23.843Z,100568.83
2022-11-05T22:32:26.656Z,100574.35
2022-11-05T22:37:29.352Z,100584.77
2022-11-05T22:42:32.549Z,100584.58
2022-11-05T22:47:35.675Z,100590.17
2022-11-05T22:52:38.442Z,100594.66
2022-11-05T22:57:41.178Z,100593.48
2022-11-05T23:02:44.268Z,100597.93
2022-11-05T23:08:19.647Z,100596.30
2022-11-05T23:13:22.347Z,100605.53
2022-11-05T23:18:43.682Z,100601.09
2022-11-05T23:24:04.291Z,100606.90
2022-11-05T23:29:06.978Z,100607.63
2022-11-05T23:34:09.803Z,100610.35
2022-11-05T23:39:12.604Z,100612.02
2022-11-05T23:44:33.790Z,100613.90
2022-11-05T23:49:36.536Z,100613.54
2022-11-05T23:54:39.215Z,100613.57
2022-11-05T23:59:41.919Z,100619.27
